ADDS METAR Data INFO
IDs: Format: Raw Decoded Include TAF

Data at: 0038 UTC 21 Jan 2018

METAR for:KIND (Indianapolis Intl, IN, US)
Text:KIND 202354Z 20007KT 10SM OVC016 05/01 A3007 RMK AO2 SLP187 4/001 T00500006 10072 20050 53008
Temperature: 5.0°C ( 41°F)
Dewpoint: 0.6°C ( 33°F) [RH = 73%]
Pressure (altimeter):30.07 inches Hg (1018.4 mb) [Sea level pressure: 1018.7 mb]
Winds:from the SSW (200 degrees) at 8 MPH (7 knots; 3.6 m/s)
Visibility:10 or more sm (16+ km)
Ceiling:1600 feet AGL
Clouds: overcast cloud deck at 1600 feet AGL